createdAt,value
2018-03-23T00:01:48.487Z,7.53
2018-03-23T00:04:16.071Z,7.57
2018-03-23T00:06:43.686Z,7.59
2018-03-23T00:09:11.321Z,7.55
2018-03-23T00:11:38.954Z,7.54
2018-03-23T00:14:06.575Z,7.55
2018-03-23T00:16:34.178Z,7.54
2018-03-23T00:19:01.810Z,7.52
2018-03-23T00:21:29.413Z,7.58
2018-03-23T00:23:57.056Z,7.58
2018-03-23T00:26:24.730Z,7.57
2018-03-23T00:28:52.391Z,7.56
2018-03-23T00:31:19.983Z,7.54
2018-03-23T00:33:47.639Z,7.53
2018-03-23T00:36:15.251Z,7.54
2018-03-23T00:38:42.882Z,7.58
2018-03-23T00:41:10.467Z,7.54
2018-03-23T00:43:38.112Z,7.51
2018-03-23T00:46:05.719Z,7.53
2018-03-23T00:48:33.387Z,7.54
2018-03-23T00:51:00.978Z,7.53
2018-03-23T00:53:28.631Z,7.57
2018-03-23T00:55:56.231Z,7.57
2018-03-23T00:58:23.871Z,7.55
2018-03-23T01:00:51.598Z,7.54
2018-03-23T01:03:19.256Z,7.56
2018-03-23T01:05:46.867Z,7.49
2018-03-23T01:08:14.507Z,7.48
2018-03-23T01:10:42.097Z,7.51
2018-03-23T01:13:09.735Z,7.49
2018-03-23T01:15:37.466Z,7.49
2018-03-23T01:18:05.111Z,7.53
2018-03-23T01:20:32.718Z,7.57
2018-03-23T01:23:00.317Z,7.58
2018-03-23T01:25:27.914Z,7.62
2018-03-23T01:27:55.590Z,7.60
2018-03-23T01:30:23.188Z,7.58
2018-03-23T01:32:50.821Z,7.58
2018-03-23T01:35:18.422Z,7.56
2018-03-23T01:37:46.047Z,7.58
2018-03-23T01:40:13.665Z,7.57
2018-03-23T01:42:41.289Z,7.59
2018-03-23T01:45:08.909Z,7.65
2018-03-23T01:47:36.557Z,7.66
2018-03-23T01:50:04.151Z,7.68
2018-03-23T01:52:31.782Z,7.71
2018-03-23T01:54:59.390Z,7.73
2018-03-23T01:57:27.030Z,7.73
2018-03-23T01:59:54.723Z,7.72
2018-03-23T02:02:22.354Z,7.69
2018-03-23T02:04:49.972Z,7.71
2018-03-23T02:07:17.674Z,7.73
2018-03-23T02:09:45.313Z,7.73
2018-03-23T02:12:12.946Z,7.73
2018-03-23T02:14:40.575Z,7.70
2018-03-23T02:17:08.214Z,7.69
2018-03-23T02:19:35.822Z,7.70
2018-03-23T02:22:03.482Z,7.70
2018-03-23T02:24:31.078Z,7.72
2018-03-23T02:26:58.697Z,7.70
2018-03-23T02:29:26.318Z,7.67
2018-03-23T02:31:53.942Z,7.66
2018-03-23T02:34:21.575Z,7.64
2018-03-23T02:36:49.186Z,7.62
2018-03-23T02:39:16.832Z,7.63
2018-03-23T02:41:44.482Z,7.62
2018-03-23T02:44:12.091Z,7.53
2018-03-23T02:46:39.712Z,7.49
2018-03-23T02:49:07.331Z,7.50
2018-03-23T02:51:34.920Z,7.56
2018-03-23T02:54:02.543Z,7.50
2018-03-23T02:56:30.156Z,7.49
2018-03-23T02:58:57.795Z,7.48
2018-03-23T03:01:25.383Z,7.42
2018-03-23T03:03:53.019Z,7.40
2018-03-23T03:06:20.636Z,7.34
2018-03-23T03:08:48.283Z,7.32
2018-03-23T03:11:15.878Z,7.27
2018-03-23T03:13:43.505Z,7.32
2018-03-23T03:16:11.109Z,7.32
2018-03-23T03:18:38.767Z,7.39
2018-03-23T03:21:06.370Z,7.35
2018-03-23T03:23:34.002Z,7.37
2018-03-23T03:26:01.606Z,7.39
2018-03-23T03:28:29.223Z,7.41
2018-03-23T03:30:56.834Z,7.38
2018-03-23T03:33:24.541Z,7.38
2018-03-23T03:35:52.156Z,7.36
2018-03-23T03:38:19.798Z,7.32
2018-03-23T03:40:47.391Z,7.34
2018-03-23T03:43:15.075Z,7.34
2018-03-23T03:45:42.667Z,7.34
2018-03-23T03:48:10.415Z,7.30
2018-03-23T03:50:38.005Z,7.28
2018-03-23T03:53:05.603Z,7.28
2018-03-23T03:55:33.202Z,7.28
2018-03-23T03:58:00.846Z,7.25
2018-03-23T04:00:28.454Z,7.27
2018-03-23T04:02:56.161Z,7.25
2018-03-23T04:05:23.758Z,7.23
2018-03-23T04:07:51.631Z,7.26
2018-03-23T04:10:19.222Z,7.25
2018-03-23T04:12:46.883Z,7.20
2018-03-23T04:15:14.487Z,7.11
2018-03-23T04:17:42.118Z,7.12
2018-03-23T04:20:09.744Z,7.11
2018-03-23T04:22:37.367Z,7.12
2018-03-23T04:25:04.976Z,7.02
2018-03-23T04:27:32.595Z,7.00
2018-03-23T04:30:00.178Z,6.97
2018-03-23T04:32:27.808Z,6.97
2018-03-23T04:34:55.459Z,6.94
2018-03-23T04:37:23.083Z,6.95
2018-03-23T04:39:50.719Z,6.92
2018-03-23T04:42:18.334Z,6.94
2018-03-23T04:44:45.968Z,6.93
2018-03-23T04:47:13.683Z,6.94
2018-03-23T04:49:41.310Z,6.92
2018-03-23T04:52:08.910Z,6.93
2018-03-23T04:54:36.575Z,6.95
2018-03-23T04:57:04.169Z,6.95
2018-03-23T04:59:31.789Z,6.93
2018-03-23T05:01:59.384Z,6.95
2018-03-23T05:04:27.027Z,6.90
2018-03-23T05:06:54.624Z,6.86
2018-03-23T05:09:22.239Z,6.84
2018-03-23T05:11:49.849Z,6.79
2018-03-23T05:14:17.548Z,6.80
2018-03-23T05:16:45.145Z,6.78
2018-03-23T05:19:12.770Z,6.73
2018-03-23T05:21:40.399Z,6.65
2018-03-23T05:24:08.038Z,6.62
2018-03-23T05:26:35.635Z,6.63
2018-03-23T05:29:03.260Z,6.62
2018-03-23T05:31:30.872Z,6.61
2018-03-23T05:33:58.546Z,6.56
2018-03-23T05:36:26.147Z,6.55
2018-03-23T05:38:53.784Z,6.54
2018-03-23T05:41:21.398Z,6.58
2018-03-23T05:43:49.036Z,6.59
2018-03-23T05:46:16.625Z,6.62
2018-03-23T05:48:44.260Z,6.67
2018-03-23T05:51:11.884Z,6.65
2018-03-23T05:53:39.502Z,6.62
2018-03-23T05:56:07.091Z,6.65
2018-03-23T05:58:34.811Z,6.66
2018-03-23T06:01:02.423Z,6.64
2018-03-23T06:03:30.039Z,6.60
2018-03-23T06:05:57.784Z,6.63
2018-03-23T06:08:25.446Z,6.65
2018-03-23T06:10:53.046Z,6.66
2018-03-23T06:13:20.665Z,6.68
2018-03-23T06:15:48.270Z,6.70
2018-03-23T06:18:15.881Z,6.67
2018-03-23T06:20:43.474Z,6.64
2018-03-23T06:23:11.106Z,6.68
2018-03-23T06:25:38.690Z,6.65
2018-03-23T06:28:06.283Z,6.67
2018-03-23T06:30:33.923Z,6.67
2018-03-23T06:33:01.516Z,6.65
2018-03-23T06:35:29.155Z,6.63
2018-03-23T06:37:56.756Z,6.61
2018-03-23T06:40:24.400Z,6.63
2018-03-23T06:42:51.989Z,6.67
2018-03-23T06:45:19.624Z,6.66
2018-03-23T06:47:47.218Z,6.66
2018-03-23T06:50:14.855Z,6.62
2018-03-23T06:52:42.470Z,6.66
2018-03-23T06:55:10.094Z,6.64
2018-03-23T06:57:37.735Z,6.65
2018-03-23T07:00:05.366Z,6.66
2018-03-23T07:02:32.976Z,6.67
2018-03-23T07:05:00.615Z,6.70
2018-03-23T07:07:28.242Z,6.70
2018-03-23T07:09:55.946Z,6.75
2018-03-23T07:12:23.546Z,6.77
2018-03-23T07:14:51.160Z,6.80
2018-03-23T07:17:18.755Z,6.80
2018-03-23T07:19:46.382Z,6.73
2018-03-23T07:22:13.976Z,6.70
2018-03-23T07:24:41.646Z,6.71
2018-03-23T07:27:09.230Z,6.70
2018-03-23T07:29:36.886Z,6.97
2018-03-23T07:32:04.486Z,6.90
2018-03-23T07:34:32.107Z,6.88
2018-03-23T07:36:59.807Z,6.88
2018-03-23T07:39:27.422Z,6.90
2018-03-23T07:41:55.489Z,7.00
2018-03-23T07:44:23.122Z,7.01
2018-03-23T07:46:50.722Z,7.03
2018-03-23T07:49:18.342Z,7.04
2018-03-23T07:51:45.943Z,7.11
2018-03-23T07:54:13.610Z,7.18
2018-03-23T07:56:41.223Z,7.22
2018-03-23T07:59:08.915Z,7.22
2018-03-23T08:01:36.528Z,7.26
2018-03-23T08:04:04.142Z,7.29
2018-03-23T08:06:31.744Z,7.32
2018-03-23T08:08:59.459Z,7.33
2018-03-23T08:11:27.060Z,7.37
2018-03-23T08:13:54.695Z,7.39
2018-03-23T08:16:22.302Z,7.44
2018-03-23T08:18:49.964Z,7.49
2018-03-23T08:21:17.558Z,7.54
2018-03-23T08:23:45.175Z,7.58
2018-03-23T08:26:12.763Z,7.57
2018-03-23T08:28:40.450Z,7.61
2018-03-23T08:31:08.017Z,7.58
2018-03-23T08:33:35.747Z,7.63
2018-03-23T08:36:03.334Z,7.60
2018-03-23T08:38:30.952Z,7.59
2018-03-23T08:40:58.550Z,7.61
2018-03-23T08:43:26.178Z,7.58
2018-03-23T08:45:53.771Z,7.65
2018-03-23T08:48:21.410Z,7.70
2018-03-23T08:50:49.049Z,7.72
2018-03-23T08:53:16.674Z,7.74
2018-03-23T08:55:44.346Z,7.77
2018-03-23T08:58:11.971Z,7.79
2018-03-23T09:00:39.623Z,7.78
2018-03-23T09:03:07.253Z,7.82
2018-03-23T09:05:34.840Z,7.82
2018-03-23T09:08:02.534Z,7.74
2018-03-23T09:10:30.143Z,7.74
2018-03-23T09:12:57.765Z,7.79
2018-03-23T09:15:25.415Z,7.81
2018-03-23T09:17:53.048Z,7.88
2018-03-23T09:20:20.645Z,7.93
2018-03-23T09:22:48.298Z,7.97
2018-03-23T09:25:15.886Z,7.94
2018-03-23T09:27:43.531Z,7.98
2018-03-23T09:30:11.239Z,8.06
2018-03-23T09:32:38.835Z,8.04
2018-03-23T09:35:06.450Z,8.08
2018-03-23T09:37:34.083Z,8.08
2018-03-23T09:40:01.678Z,7.97
2018-03-23T09:42:29.355Z,7.97
2018-03-23T09:44:56.965Z,8.01
2018-03-23T09:47:24.596Z,8.09
2018-03-23T09:49:52.203Z,8.23
2018-03-23T09:52:19.806Z,8.36
2018-03-23T09:54:47.423Z,8.42
2018-03-23T09:57:15.193Z,8.42
2018-03-23T09:59:42.782Z,8.46
2018-03-23T10:02:10.371Z,8.39
2018-03-23T10:04:37.988Z,8.35
2018-03-23T10:07:05.562Z,8.37
2018-03-23T10:09:33.251Z,8.34
2018-03-23T10:12:00.842Z,8.41
2018-03-23T10:14:28.529Z,8.42
2018-03-23T10:16:56.139Z,8.45
2018-03-23T10:19:23.814Z,8.50
2018-03-23T10:21:51.405Z,8.50
2018-03-23T10:24:19.027Z,8.51
2018-03-23T10:26:46.614Z,8.49
2018-03-23T10:29:14.278Z,8.49
2018-03-23T10:31:41.874Z,8.54
2018-03-23T10:34:09.530Z,8.49
2018-03-23T10:36:37.110Z,8.50
2018-03-23T10:39:04.777Z,8.49
2018-03-23T10:41:32.431Z,8.57
2018-03-23T10:44:00.060Z,8.55
2018-03-23T10:46:27.660Z,8.58
2018-03-23T10:48:55.327Z,8.65
2018-03-23T10:51:22.953Z,8.62
2018-03-23T10:53:50.579Z,8.65
2018-03-23T10:56:18.171Z,8.63
2018-03-23T10:58:45.798Z,8.61
2018-03-23T11:01:18.751Z,8.61
2018-03-23T11:03:46.359Z,8.63
2018-03-23T11:06:13.958Z,8.67
2018-03-23T11:08:41.590Z,8.70
2018-03-23T11:11:09.209Z,8.72
2018-03-23T11:13:36.834Z,8.72
2018-03-23T11:16:04.443Z,8.75
2018-03-23T11:18:32.111Z,8.79
2018-03-23T11:20:59.698Z,8.80
2018-03-23T11:23:27.346Z,8.90
2018-03-23T11:25:54.958Z,8.95
2018-03-23T11:28:22.578Z,8.93
2018-03-23T11:30:50.171Z,8.95
2018-03-23T11:33:17.834Z,8.91
2018-03-23T11:35:45.419Z,8.87
2018-03-23T11:38:13.070Z,8.93
2018-03-23T11:40:40.674Z,8.90
2018-03-23T11:43:08.342Z,8.87
2018-03-23T11:45:35.945Z,8.90
2018-03-23T11:48:03.613Z,8.90
2018-03-23T11:50:31.215Z,8.87
2018-03-23T11:52:58.838Z,8.81
2018-03-23T11:55:26.426Z,8.78
2018-03-23T11:57:54.060Z,8.79
2018-03-23T12:00:21.667Z,8.77
2018-03-23T12:02:49.296Z,8.71
2018-03-23T12:05:16.886Z,8.66
2018-03-23T12:07:44.539Z,8.64
2018-03-23T12:10:12.138Z,8.66
2018-03-23T12:12:40.015Z,8.72
2018-03-23T12:15:07.620Z,8.73
2018-03-23T12:17:35.229Z,8.73
2018-03-23T12:20:02.891Z,8.77
2018-03-23T12:22:30.515Z,8.76
2018-03-23T12:24:58.126Z,8.73
2018-03-23T12:27:25.859Z,8.76
2018-03-23T12:29:53.424Z,8.73
2018-03-23T12:32:21.034Z,8.66
2018-03-23T12:34:48.703Z,8.65
2018-03-23T12:37:16.256Z,8.66
2018-03-23T12:39:43.856Z,8.61
2018-03-23T12:42:11.474Z,8.61
2018-03-23T12:44:39.078Z,8.58
2018-03-23T12:47:06.704Z,8.56
2018-03-23T12:49:34.314Z,8.53
2018-03-23T12:52:01.909Z,8.55
2018-03-23T12:54:29.534Z,8.52
2018-03-23T12:56:57.138Z,8.51
2018-03-23T12:59:24.753Z,8.58
2018-03-23T13:01:52.383Z,8.60
2018-03-23T13:04:19.974Z,8.60
2018-03-23T13:06:47.600Z,8.57
2018-03-23T13:09:15.262Z,8.58
2018-03-23T13:11:42.898Z,8.64
2018-03-23T13:14:10.530Z,8.69
2018-03-23T13:16:38.129Z,8.75
2018-03-23T13:19:05.746Z,8.71
2018-03-23T13:21:33.331Z,8.66
2018-03-23T13:24:01.018Z,8.67
2018-03-23T13:26:28.631Z,8.69
2018-03-23T13:28:56.258Z,8.68
2018-03-23T13:31:23.867Z,8.64
2018-03-23T13:33:51.486Z,8.59
2018-03-23T13:36:19.226Z,8.62
2018-03-23T13:38:46.935Z,8.64
2018-03-23T13:41:14.556Z,8.69
2018-03-23T13:43:42.165Z,8.69
2018-03-23T13:46:09.802Z,8.69
2018-03-23T13:48:37.419Z,8.70
2018-03-23T13:51:05.023Z,8.71
2018-03-23T13:53:32.654Z,8.69
2018-03-23T13:56:00.259Z,8.70
2018-03-23T13:58:33.449Z,8.76
2018-03-23T14:01:01.760Z,8.75
2018-03-23T14:03:29.377Z,8.70
2018-03-23T14:05:56.972Z,8.73
2018-03-23T14:08:24.601Z,8.78
2018-03-23T14:10:52.187Z,8.86
2018-03-23T14:13:19.832Z,8.81
2018-03-23T14:15:47.443Z,8.76
2018-03-23T14:18:15.060Z,8.75
2018-03-23T14:20:42.648Z,8.76
2018-03-23T14:23:10.251Z,8.79
2018-03-23T14:25:38.010Z,8.78
2018-03-23T14:28:05.618Z,8.76
2018-03-23T14:30:33.295Z,8.68
2018-03-23T14:33:00.947Z,8.71
2018-03-23T14:35:28.542Z,8.69
2018-03-23T14:37:56.299Z,8.73
2018-03-23T14:40:23.958Z,8.69
2018-03-23T14:42:51.585Z,8.66
2018-03-23T14:45:19.199Z,8.68
2018-03-23T14:47:46.823Z,8.62
2018-03-23T14:50:14.426Z,8.58
2018-03-23T14:52:42.048Z,8.60
2018-03-23T14:55:09.631Z,8.56
2018-03-23T14:57:37.259Z,8.53
2018-03-23T15:00:04.881Z,8.56
2018-03-23T15:02:32.510Z,8.54
2018-03-23T15:05:00.096Z,8.55
2018-03-23T15:07:27.707Z,8.57
2018-03-23T15:09:55.328Z,8.56
2018-03-23T15:12:22.951Z,8.60
2018-03-23T15:14:50.626Z,8.59
2018-03-23T15:17:18.231Z,8.60
2018-03-23T15:19:45.857Z,8.57
2018-03-23T15:22:13.482Z,8.51
2018-03-23T15:24:41.069Z,8.51
2018-03-23T15:27:08.762Z,8.48
2018-03-23T15:29:36.363Z,8.45
2018-03-23T15:32:04.091Z,8.45
2018-03-23T15:34:31.682Z,8.45
2018-03-23T15:36:59.472Z,8.44
2018-03-23T15:39:27.078Z,8.37
2018-03-23T15:41:54.756Z,8.34
2018-03-23T15:44:22.366Z,8.31
2018-03-23T15:46:49.950Z,8.33
2018-03-23T15:49:17.574Z,8.35
2018-03-23T15:51:45.187Z,8.36
2018-03-23T15:54:12.807Z,8.34
2018-03-23T15:56:40.386Z,8.31
2018-03-23T15:59:08.008Z,8.35
2018-03-23T16:01:35.601Z,8.33
2018-03-23T16:04:03.235Z,8.33
2018-03-23T16:06:30.837Z,8.34
2018-03-23T16:08:58.462Z,8.32
2018-03-23T16:11:26.054Z,8.33
2018-03-23T16:13:53.701Z,8.33
2018-03-23T16:16:21.283Z,8.33
2018-03-23T16:18:48.910Z,8.31
2018-03-23T16:21:16.506Z,8.26
2018-03-23T16:23:44.122Z,8.29
2018-03-23T16:26:11.742Z,8.23
2018-03-23T16:28:39.354Z,8.24
2018-03-23T16:31:06.948Z,8.21
2018-03-23T16:33:34.622Z,8.24
2018-03-23T16:36:02.222Z,8.22
2018-03-23T16:38:29.831Z,8.22
2018-03-23T16:40:57.427Z,8.20
2018-03-23T16:43:25.088Z,8.23
2018-03-23T16:45:52.710Z,8.15
2018-03-23T16:48:20.307Z,8.12
2018-03-23T16:50:47.948Z,8.12
2018-03-23T16:53:15.546Z,8.10
2018-03-23T16:55:43.168Z,8.01
2018-03-23T16:58:10.827Z,8.00
2018-03-23T17:00:38.427Z,7.97
2018-03-23T17:03:06.074Z,7.97
2018-03-23T17:05:33.730Z,7.94
2018-03-23T17:08:01.340Z,7.98
2018-03-23T17:10:28.951Z,7.98
2018-03-23T17:12:56.546Z,7.93
2018-03-23T17:15:24.151Z,7.90
2018-03-23T17:17:51.741Z,7.89
2018-03-23T17:20:19.429Z,7.86
2018-03-23T17:22:47.029Z,7.87
2018-03-23T17:25:14.712Z,7.86
2018-03-23T17:27:42.324Z,7.87
2018-03-23T17:30:09.990Z,7.91
2018-03-23T17:32:37.610Z,7.95
2018-03-23T17:35:05.302Z,7.94
2018-03-23T17:37:32.895Z,7.92
2018-03-23T17:40:00.576Z,7.89
2018-03-23T17:42:28.187Z,7.89
2018-03-23T17:44:55.831Z,7.92
2018-03-23T17:47:23.435Z,7.92
2018-03-23T17:49:51.072Z,7.92
2018-03-23T17:52:18.725Z,7.88
2018-03-23T17:54:46.368Z,7.90
2018-03-23T17:57:13.958Z,7.87
2018-03-23T17:59:41.573Z,7.87
2018-03-23T18:02:09.224Z,7.86
2018-03-23T18:04:36.898Z,7.88
2018-03-23T18:07:04.564Z,7.93
2018-03-23T18:09:32.225Z,7.92
2018-03-23T18:11:59.825Z,7.90
2018-03-23T18:14:27.449Z,7.85
2018-03-23T18:16:55.097Z,7.81
2018-03-23T18:19:22.694Z,7.80
2018-03-23T18:21:50.327Z,7.76
2018-03-23T18:24:17.942Z,7.76
2018-03-23T18:26:45.572Z,7.74
2018-03-23T18:29:13.243Z,7.75
2018-03-23T18:31:40.938Z,7.80
2018-03-23T18:34:08.556Z,7.80
2018-03-23T18:36:36.211Z,7.73
2018-03-23T18:39:03.842Z,7.69
2018-03-23T18:41:31.470Z,7.71
2018-03-23T18:43:59.058Z,7.71
2018-03-23T18:46:26.714Z,7.71
2018-03-23T18:48:54.318Z,7.71
2018-03-23T18:51:21.945Z,7.75
2018-03-23T18:53:49.538Z,7.73
2018-03-23T18:56:17.166Z,7.72
2018-03-23T18:58:44.763Z,7.69
2018-03-23T19:01:12.404Z,7.71
2018-03-23T19:03:39.987Z,7.70
2018-03-23T19:06:07.616Z,7.70
2018-03-23T19:08:35.226Z,7.69
2018-03-23T19:11:03.961Z,7.97
2018-03-23T19:13:31.558Z,8.39
2018-03-23T19:15:59.186Z,8.09
2018-03-23T19:18:26.790Z,7.79
2018-03-23T19:20:54.416Z,7.75
2018-03-23T19:23:22.028Z,7.63
2018-03-23T19:25:49.690Z,7.63
2018-03-23T19:28:17.285Z,7.58
2018-03-23T19:30:44.908Z,7.57
